createdAt,value
2022-11-22T00:00:56.221Z,18.95
2022-11-22T00:01:58.805Z,20.20
2022-11-22T00:03:01.386Z,20.00
2022-11-22T00:04:03.963Z,21.77
2022-11-22T00:05:07.001Z,21.23
2022-11-22T00:06:09.542Z,19.85
2022-11-22T00:07:12.113Z,21.70
2022-11-22T00:08:14.687Z,24.23
2022-11-22T00:09:17.209Z,20.50
2022-11-22T00:10:19.934Z,18.85
2022-11-22T00:11:22.440Z,22.65
2022-11-22T00:12:24.944Z,27.75
2022-11-22T00:13:27.527Z,20.13
2022-11-22T00:14:30.373Z,21.08
2022-11-22T00:15:33.025Z,20.52
2022-11-22T00:16:35.794Z,21.33
2022-11-22T00:17:38.709Z,19.05
2022-11-22T00:18:41.307Z,20.08
2022-11-22T00:19:43.802Z,18.63
2022-11-22T00:20:46.340Z,21.70
2022-11-22T00:21:48.971Z,24.33
2022-11-22T00:22:51.476Z,21.92
2022-11-22T00:23:57.624Z,26.92
2022-11-22T00:25:00.631Z,23.67
2022-11-22T00:26:03.204Z,21.58
2022-11-22T00:27:05.811Z,24.60
2022-11-22T00:28:08.412Z,20.17
2022-11-22T00:29:11.061Z,20.48
2022-11-22T00:30:13.647Z,18.83
2022-11-22T00:34:47.288Z,20.15
2022-11-22T00:35:49.841Z,17.90
2022-11-22T00:36:52.389Z,21.17
2022-11-22T00:37:55.036Z,22.77
2022-11-22T00:38:57.697Z,17.73
2022-11-22T00:40:00.228Z,20.80
2022-11-22T00:41:03.038Z,20.77
2022-11-22T00:42:05.614Z,18.13
2022-11-22T00:43:08.137Z,18.42
2022-11-22T00:44:10.658Z,19.92
2022-11-22T00:45:13.220Z,19.27
2022-11-22T00:46:15.745Z,22.85
2022-11-22T00:47:18.306Z,24.35
2022-11-22T00:48:21.100Z,21.88
2022-11-22T00:49:23.706Z,21.73
2022-11-22T00:50:26.257Z,18.88
2022-11-22T00:51:28.805Z,24.35
2022-11-22T00:52:31.351Z,22.13
2022-11-22T00:53:33.861Z,22.38
2022-11-22T00:54:36.509Z,20.27
2022-11-22T00:55:39.075Z,20.63
2022-11-22T00:56:41.752Z,19.20
2022-11-22T00:57:44.324Z,19.40
2022-11-22T00:58:46.847Z,18.00
2022-11-22T00:59:49.463Z,19.55
2022-11-22T01:00:56.326Z,23.17
2022-11-22T01:01:59.467Z,21.80
2022-11-22T01:03:02.067Z,22.35
2022-11-22T01:04:04.848Z,24.27
2022-11-22T01:05:07.689Z,21.85
2022-11-22T01:06:10.273Z,18.83
2022-11-22T01:07:13.055Z,24.00
2022-11-22T01:08:15.733Z,21.27
2022-11-22T01:09:21.898Z,23.15
2022-11-22T01:10:24.475Z,22.77
2022-11-22T01:11:27.125Z,23.80
2022-11-22T01:12:29.677Z,21.27
2022-11-22T01:13:32.566Z,24.45
2022-11-22T01:14:35.132Z,26.17
2022-11-22T01:15:37.765Z,23.60
2022-11-22T01:16:40.439Z,21.95
2022-11-22T01:17:43.030Z,20.48
2022-11-22T01:18:45.891Z,21.75
2022-11-22T01:19:48.490Z,21.55
2022-11-22T01:20:51.062Z,24.27
2022-11-22T01:21:53.614Z,24.02
2022-11-22T01:22:56.298Z,24.35
2022-11-22T01:23:58.816Z,22.10
2022-11-22T01:25:01.426Z,25.60
2022-11-22T01:26:07.869Z,24.73
2022-11-22T01:27:10.466Z,22.88
2022-11-22T01:28:13.222Z,23.67
2022-11-22T01:29:15.771Z,19.42
2022-11-22T01:30:19.592Z,25.95
2022-11-22T01:31:22.253Z,22.05
2022-11-22T01:32:24.777Z,23.73
2022-11-22T01:33:29.352Z,23.67
2022-11-22T01:34:32.154Z,24.83
2022-11-22T01:35:35.196Z,25.67
2022-11-22T01:36:37.775Z,24.77
2022-11-22T01:37:40.372Z,29.10
2022-11-22T01:39:08.859Z,27.90
2022-11-22T01:40:11.953Z,27.20
2022-11-22T01:41:14.578Z,27.23
2022-11-22T01:42:17.256Z,25.20
2022-11-22T01:43:23.754Z,25.60
2022-11-22T01:44:33.331Z,27.58
2022-11-22T01:45:43.746Z,24.55
2022-11-22T01:46:50.036Z,28.20
2022-11-22T01:47:53.205Z,31.13
2022-11-22T01:49:37.092Z,25.63
2022-11-22T01:50:43.764Z,24.48
2022-11-22T01:51:51.840Z,26.38
2022-11-22T01:52:57.458Z,25.17
2022-11-22T01:54:10.008Z,26.70
2022-11-22T01:55:13.191Z,27.73
2022-11-22T01:56:18.529Z,24.55
2022-11-22T01:57:26.833Z,30.05
2022-11-22T01:58:33.521Z,28.75
2022-11-22T01:59:40.379Z,28.05
2022-11-22T02:00:44.140Z,27.67
2022-11-22T02:01:46.905Z,22.83
2022-11-22T02:02:59.099Z,29.85
2022-11-22T02:04:03.492Z,25.58
2022-11-22T02:05:11.755Z,33.70
2022-11-22T02:06:14.868Z,26.23
2022-11-22T02:07:27.668Z,27.48
2022-11-22T02:08:56.257Z,26.20
2022-11-22T02:09:58.765Z,23.90
2022-11-22T02:11:03.803Z,28.35
2022-11-22T02:12:08.790Z,27.52
2022-11-22T02:13:14.006Z,25.48
2022-11-22T02:14:21.591Z,30.05
2022-11-22T02:15:24.310Z,26.08
2022-11-22T02:16:26.880Z,27.80
2022-11-22T02:17:29.606Z,26.23
2022-11-22T02:18:35.832Z,24.60
2022-11-22T02:19:46.322Z,29.45
2022-11-22T02:20:48.853Z,29.42
2022-11-22T02:21:59.865Z,26.50
2022-11-22T02:23:44.252Z,25.25
2022-11-22T02:25:19.621Z,23.13
2022-11-22T02:26:27.766Z,25.70
2022-11-22T02:27:30.345Z,26.67
2022-11-22T02:28:38.133Z,30.77
2022-11-22T02:29:41.370Z,25.42
2022-11-22T02:30:43.948Z,21.80
2022-11-22T02:31:47.555Z,27.17
2022-11-22T02:32:50.185Z,29.75
2022-11-22T02:33:55.306Z,26.80
2022-11-22T02:35:00.006Z,28.08
2022-11-22T02:36:03.269Z,30.02
2022-11-22T02:37:05.923Z,29.95
2022-11-22T02:38:18.344Z,26.88
2022-11-22T02:39:27.772Z,31.90
2022-11-22T02:40:38.890Z,26.98
2022-11-22T02:41:41.704Z,28.20
2022-11-22T02:42:50.429Z,27.70
2022-11-22T02:43:52.984Z,26.90
2022-11-22T02:44:55.542Z,29.92
2022-11-22T02:46:08.477Z,30.42
2022-11-22T02:47:11.054Z,24.08
2022-11-22T02:48:17.491Z,25.98
2022-11-22T02:49:23.456Z,29.02
2022-11-22T02:50:26.023Z,26.17
2022-11-22T02:51:28.527Z,30.38
2022-11-22T02:52:31.170Z,26.80
2022-11-22T02:53:33.708Z,27.92
2022-11-22T02:54:36.259Z,27.52
2022-11-22T02:55:39.119Z,26.70
2022-11-22T02:56:41.812Z,24.15
2022-11-22T02:57:44.352Z,27.20
2022-11-22T02:58:46.913Z,28.55
2022-11-22T02:59:49.463Z,26.23
2022-11-22T03:00:52.109Z,28.83
2022-11-22T03:01:58.630Z,30.50
2022-11-22T03:03:04.389Z,26.13
2022-11-22T03:04:07.065Z,31.90
2022-11-22T03:06:30.164Z,32.95
2022-11-22T03:07:32.842Z,26.80
2022-11-22T03:08:35.553Z,30.98
2022-11-22T03:09:38.088Z,33.85
2022-11-22T03:10:40.633Z,29.55
2022-11-22T03:16:05.414Z,29.58
2022-11-22T03:17:07.966Z,25.85
2022-11-22T03:18:10.518Z,30.55
2022-11-22T03:19:14.272Z,33.10
2022-11-22T03:20:16.847Z,32.60
2022-11-22T03:21:19.617Z,41.45
2022-11-22T03:22:22.124Z,35.58
2022-11-22T03:23:24.641Z,38.55
2022-11-22T03:24:27.235Z,39.08
2022-11-22T03:25:29.757Z,32.85
2022-11-22T03:26:32.561Z,35.70
2022-11-22T03:27:35.170Z,34.53
2022-11-22T03:28:37.898Z,31.77
2022-11-22T03:29:40.448Z,33.15
2022-11-22T03:30:43.061Z,36.35
2022-11-22T03:31:45.625Z,29.95
2022-11-22T03:32:48.165Z,32.97
2022-11-22T03:33:50.964Z,27.88
2022-11-22T03:34:53.500Z,35.80
2022-11-22T03:35:58.851Z,28.63
2022-11-22T03:37:01.455Z,36.10
2022-11-22T03:38:04.468Z,32.00
2022-11-22T03:39:07.263Z,36.75
2022-11-22T03:40:10.136Z,29.30
2022-11-22T03:41:12.703Z,30.42
2022-11-22T03:42:21.007Z,33.55
2022-11-22T03:43:24.333Z,29.85
2022-11-22T03:44:26.977Z,38.85
2022-11-22T03:45:30.125Z,35.97
2022-11-22T03:46:32.798Z,33.17
2022-11-22T03:47:35.296Z,35.40
2022-11-22T03:48:37.832Z,35.72
2022-11-22T03:49:40.564Z,35.28
2022-11-22T03:50:43.198Z,36.92
2022-11-22T03:51:45.782Z,39.97
2022-11-22T03:52:48.302Z,37.53
2022-11-22T03:53:50.813Z,34.38
2022-11-22T03:54:53.349Z,36.33
2022-11-22T03:55:55.930Z,38.35
2022-11-22T03:56:58.474Z,33.70
2022-11-22T03:58:01.077Z,34.97
2022-11-22T03:59:03.600Z,35.20
2022-11-22T04:00:07.162Z,33.25
2022-11-22T04:01:16.806Z,35.78
2022-11-22T04:02:19.584Z,36.47
2022-11-22T04:03:22.193Z,37.40
2022-11-22T04:04:24.786Z,32.63
2022-11-22T04:05:27.440Z,35.78
2022-11-22T04:06:30.013Z,37.90
2022-11-22T04:07:32.630Z,39.05
2022-11-22T04:08:35.294Z,35.47
2022-11-22T04:09:37.901Z,32.33
2022-11-22T04:10:40.503Z,34.78
2022-11-22T04:11:43.071Z,35.83
2022-11-22T04:12:45.579Z,36.63
2022-11-22T04:14:06.606Z,41.95
2022-11-22T04:15:10.009Z,34.40
2022-11-22T04:16:12.607Z,33.80
2022-11-22T04:17:35.561Z,39.30
2022-11-22T04:18:38.081Z,32.47
2022-11-22T04:20:00.626Z,31.20
2022-11-22T04:21:21.945Z,34.78
2022-11-22T04:22:24.606Z,38.88
2022-11-22T04:23:33.435Z,33.00
2022-11-22T04:24:54.757Z,37.53
2022-11-22T04:25:57.273Z,30.80
2022-11-22T04:26:59.901Z,38.38
2022-11-22T04:28:02.986Z,39.70
2022-11-22T04:29:09.976Z,37.13
2022-11-22T04:30:17.453Z,36.05
2022-11-22T04:31:41.333Z,36.03
2022-11-22T04:32:46.943Z,37.88
2022-11-22T04:33:49.451Z,38.95
2022-11-22T04:34:51.978Z,35.15
2022-11-22T04:35:55.276Z,37.65
2022-11-22T04:36:58.112Z,41.17
2022-11-22T04:38:00.641Z,36.15
2022-11-22T04:39:03.490Z,35.88
2022-11-22T04:40:07.020Z,35.63
2022-11-22T04:41:09.572Z,32.88
2022-11-22T04:42:30.500Z,36.85
2022-11-22T04:43:51.606Z,40.35
2022-11-22T04:44:54.137Z,41.28
2022-11-22T04:45:56.652Z,38.30
2022-11-22T04:46:59.162Z,39.67
2022-11-22T04:48:01.802Z,34.80
2022-11-22T04:49:04.523Z,34.08
2022-11-22T04:50:28.661Z,30.67
2022-11-22T04:51:49.904Z,34.78
2022-11-22T04:52:57.595Z,38.17
2022-11-22T04:54:00.376Z,37.65
2022-11-22T04:55:02.975Z,30.15
2022-11-22T04:56:05.754Z,34.17
2022-11-22T04:57:08.259Z,32.17
2022-11-22T04:58:11.450Z,33.13
2022-11-22T04:59:14.101Z,29.67
2022-11-22T05:00:17.604Z,29.48
2022-11-22T05:01:20.128Z,30.73
2022-11-22T05:02:22.727Z,35.03
2022-11-22T05:03:25.251Z,36.15
2022-11-22T05:04:27.800Z,33.13
2022-11-22T05:05:31.109Z,37.55
2022-11-22T05:06:33.611Z,34.45
2022-11-22T05:08:02.636Z,36.58
2022-11-22T05:09:07.126Z,38.53
2022-11-22T05:10:10.580Z,35.40
2022-11-22T05:11:13.140Z,37.58
2022-11-22T05:12:15.665Z,34.05
2022-11-22T05:13:20.118Z,36.60
2022-11-22T05:14:22.695Z,35.83
2022-11-22T05:15:25.303Z,34.42
2022-11-22T05:16:27.856Z,36.63
2022-11-22T05:17:30.413Z,33.58
2022-11-22T05:18:33.473Z,38.10
2022-11-22T05:19:36.042Z,35.65
2022-11-22T05:20:38.653Z,33.97
2022-11-22T05:21:41.354Z,31.35
2022-11-22T05:23:02.668Z,29.35
2022-11-22T05:24:05.745Z,34.72
2022-11-22T05:25:08.952Z,33.70
2022-11-22T05:26:11.710Z,33.40
2022-11-22T05:27:14.238Z,36.72
2022-11-22T05:28:16.756Z,29.35
2022-11-22T05:29:19.364Z,34.60
2022-11-22T05:30:22.129Z,33.83
2022-11-22T05:31:27.362Z,33.58
2022-11-22T05:32:31.827Z,32.58
2022-11-22T05:33:38.896Z,29.25
2022-11-22T05:34:41.400Z,30.40
2022-11-22T05:35:43.915Z,33.53
2022-11-22T05:36:46.497Z,29.42
2022-11-22T05:37:49.031Z,39.55
2022-11-22T05:38:52.363Z,30.10
2022-11-22T05:39:55.004Z,35.75
2022-11-22T05:40:57.577Z,33.80
2022-11-22T05:42:00.131Z,32.58
2022-11-22T05:43:02.714Z,30.27
2022-11-22T05:44:05.522Z,29.65
2022-11-22T05:45:08.856Z,31.30
2022-11-22T05:46:31.536Z,36.10
2022-11-22T05:47:35.890Z,28.48
2022-11-22T05:48:41.273Z,32.92
2022-11-22T05:49:46.238Z,36.20
2022-11-22T05:50:48.837Z,32.53
2022-11-22T05:51:51.987Z,30.08
2022-11-22T05:52:55.087Z,30.38
2022-11-22T05:53:57.632Z,33.83
2022-11-22T05:55:00.355Z,32.90
2022-11-22T05:56:17.633Z,30.52
2022-11-22T05:57:20.315Z,30.70
2022-11-22T05:58:22.824Z,28.42
2022-11-22T05:59:25.401Z,26.77
2022-11-22T06:00:29.838Z,30.95
2022-11-22T06:01:32.378Z,29.08
2022-11-22T06:02:35.089Z,26.88
2022-11-22T06:03:38.618Z,32.60
2022-11-22T06:04:41.252Z,28.15
2022-11-22T06:05:50.920Z,29.20
2022-11-22T06:06:53.456Z,27.48
2022-11-22T06:08:00.630Z,28.88
2022-11-22T06:09:03.756Z,28.35
2022-11-22T06:10:06.741Z,29.65
2022-11-22T06:11:17.946Z,25.13
2022-11-22T06:12:20.481Z,29.83
2022-11-22T06:13:23.095Z,38.13
2022-11-22T06:14:25.688Z,33.95
2022-11-22T06:15:28.276Z,29.05
2022-11-22T06:16:32.070Z,28.73
2022-11-22T06:17:34.586Z,32.20
2022-11-22T06:18:37.430Z,34.55
2022-11-22T06:19:39.992Z,31.95
2022-11-22T06:20:42.683Z,29.10
2022-11-22T06:21:45.362Z,32.17
2022-11-22T06:22:47.921Z,31.00
2022-11-22T06:23:52.905Z,30.27
2022-11-22T06:24:55.495Z,33.17
2022-11-22T06:26:10.170Z,32.78
2022-11-22T06:27:12.752Z,33.78
2022-11-22T06:28:15.291Z,31.23
2022-11-22T06:29:17.832Z,31.25
2022-11-22T06:30:20.554Z,28.33
2022-11-22T06:34:42.927Z,30.52
2022-11-22T06:35:45.522Z,32.95
2022-11-22T06:36:48.033Z,28.52
2022-11-22T06:37:50.839Z,30.33
2022-11-22T06:38:54.971Z,32.63
2022-11-22T06:39:57.595Z,29.63
2022-11-22T06:41:02.327Z,33.30
2022-11-22T06:42:05.379Z,37.22
2022-11-22T06:43:07.901Z,28.23
2022-11-22T06:44:10.743Z,31.05
2022-11-22T06:45:13.326Z,29.40
2022-11-22T06:46:20.601Z,31.30
2022-11-22T06:47:23.214Z,28.75
2022-11-22T06:48:27.086Z,31.00
2022-11-22T06:49:29.746Z,26.88
2022-11-22T06:50:32.482Z,27.55
2022-11-22T06:51:35.232Z,25.83
2022-11-22T06:52:37.930Z,30.20
2022-11-22T06:53:47.373Z,30.00
2022-11-22T06:54:50.982Z,24.52
2022-11-22T06:56:01.476Z,31.35
2022-11-22T06:57:04.235Z,30.73
2022-11-22T06:58:06.786Z,32.17
2022-11-22T06:59:10.012Z,28.73
2022-11-22T07:00:13.816Z,28.02
2022-11-22T07:01:23.511Z,28.33
2022-11-22T07:02:26.090Z,25.60
2022-11-22T07:03:29.192Z,26.02
2022-11-22T07:04:31.711Z,28.02
2022-11-22T07:05:34.264Z,26.95
2022-11-22T07:06:38.756Z,30.95
2022-11-22T07:07:41.578Z,36.00
2022-11-22T07:08:45.206Z,33.47
2022-11-22T07:09:50.955Z,30.52
2022-11-22T07:11:06.295Z,30.13
2022-11-22T07:12:09.102Z,27.27
2022-11-22T07:13:11.706Z,35.20
2022-11-22T07:14:14.266Z,28.65
2022-11-22T07:15:16.843Z,30.08
2022-11-22T07:16:21.248Z,26.27
2022-11-22T07:17:23.935Z,26.52
2022-11-22T07:18:27.453Z,31.48
2022-11-22T07:19:30.412Z,30.90
2022-11-22T07:20:33.321Z,27.95
2022-11-22T07:21:37.562Z,28.83
2022-11-22T07:22:40.364Z,29.75
2022-11-22T07:23:44.985Z,29.98
2022-11-22T07:24:47.608Z,27.33
2022-11-22T07:25:50.124Z,27.20
2022-11-22T07:26:52.712Z,26.83
2022-11-22T07:27:55.267Z,30.38
2022-11-22T07:28:57.870Z,31.33
2022-11-22T07:30:00.643Z,26.27
2022-11-22T07:31:06.477Z,32.95
2022-11-22T07:32:09.897Z,36.17
2022-11-22T07:33:12.457Z,28.92
2022-11-22T07:34:26.355Z,31.92
2022-11-22T07:35:29.488Z,35.00
2022-11-22T07:36:53.109Z,31.35
2022-11-22T07:38:20.185Z,39.47
2022-11-22T07:41:41.225Z,34.30
2022-11-22T07:43:12.117Z,30.83
2022-11-22T07:44:35.878Z,35.78
2022-11-22T07:48:20.472Z,31.50
2022-11-22T07:50:27.118Z,33.97
2022-11-22T07:54:33.095Z,28.15
2022-11-22T07:56:41.976Z,34.17
2022-11-22T07:58:01.008Z,30.30
2022-11-22T07:59:20.884Z,27.20
2022-11-22T08:01:07.826Z,31.67
2022-11-22T08:02:34.492Z,33.60
2022-11-22T08:03:58.793Z,35.22
2022-11-22T08:05:03.898Z,27.67
2022-11-22T08:06:17.949Z,34.85
2022-11-22T08:07:23.157Z,32.80
2022-11-22T08:08:37.789Z,27.52
2022-11-22T08:09:45.242Z,26.33
2022-11-22T08:11:11.311Z,33.28
2022-11-22T08:12:36.812Z,29.70
2022-11-22T08:13:42.526Z,30.92
2022-11-22T08:14:52.115Z,34.75
2022-11-22T08:16:05.952Z,33.55
2022-11-22T08:17:12.474Z,30.05
2022-11-22T08:18:39.924Z,26.88
2022-11-22T08:19:44.871Z,26.35
2022-11-22T08:20:47.596Z,28.95
2022-11-22T08:21:58.537Z,27.75
2022-11-22T08:23:01.409Z,30.73
2022-11-22T08:24:04.428Z,28.23
2022-11-22T08:25:30.464Z,28.50
2022-11-22T08:26:47.847Z,33.00
2022-11-22T08:27:53.971Z,27.70
2022-11-22T08:29:08.820Z,27.33
2022-11-22T08:30:22.887Z,29.23
2022-11-22T08:31:33.233Z,29.45
2022-11-22T08:32:43.430Z,29.75
2022-11-22T08:33:48.938Z,29.95
2022-11-22T08:34:53.964Z,29.40
2022-11-22T08:36:13.263Z,28.73
2022-11-22T08:37:21.929Z,30.73
2022-11-22T08:38:24.506Z,25.77
2022-11-22T08:39:27.713Z,28.92
2022-11-22T08:40:30.799Z,24.58
2022-11-22T08:41:33.466Z,27.58
2022-11-22T08:42:35.977Z,31.88
2022-11-22T08:43:38.983Z,27.90
2022-11-22T08:44:41.624Z,27.20
2022-11-22T08:45:44.170Z,27.10
2022-11-22T08:46:46.694Z,28.63
2022-11-22T08:47:49.445Z,27.70
2022-11-22T08:48:54.313Z,26.15
2022-11-22T08:49:56.883Z,28.10
2022-11-22T08:51:05.758Z,25.02
2022-11-22T08:52:09.329Z,26.08
2022-11-22T08:53:11.910Z,27.85
2022-11-22T08:54:15.599Z,28.90
2022-11-22T08:55:18.113Z,27.05
2022-11-22T08:56:20.941Z,29.70
2022-11-22T08:57:23.845Z,26.20
2022-11-22T08:58:26.590Z,25.67
2022-11-22T08:59:29.412Z,26.25
2022-11-22T09:01:25.604Z,26.55
2022-11-22T09:02:28.665Z,26.70
2022-11-22T09:03:31.197Z,28.35
2022-11-22T09:04:33.847Z,24.45
2022-11-22T09:05:36.865Z,29.05
2022-11-22T09:08:23.191Z,28.73
2022-11-22T09:09:41.249Z,24.92
2022-11-22T09:10:44.070Z,24.55
2022-11-22T09:11:46.609Z,28.50
2022-11-22T09:12:49.176Z,29.00
2022-11-22T09:13:51.765Z,28.38
2022-11-22T09:14:54.278Z,26.98
2022-11-22T09:16:05.705Z,27.70
2022-11-22T09:17:13.150Z,25.08
2022-11-22T09:18:18.789Z,31.60
2022-11-22T09:19:21.344Z,27.52
2022-11-22T09:20:23.978Z,27.92
2022-11-22T09:21:26.578Z,23.02
2022-11-22T09:22:29.085Z,29.83
2022-11-22T09:23:32.219Z,28.90
2022-11-22T09:24:34.953Z,31.75
2022-11-22T09:25:37.582Z,24.35
2022-11-22T09:26:41.260Z,26.83
2022-11-22T09:27:43.770Z,25.45
2022-11-22T09:28:47.123Z,27.90
2022-11-22T09:29:50.549Z,30.63
2022-11-22T09:31:03.791Z,25.83
2022-11-22T09:32:10.662Z,26.90
2022-11-22T09:33:13.171Z,28.15
2022-11-22T09:34:15.882Z,27.85
2022-11-22T09:35:20.242Z,30.77
2022-11-22T09:36:28.155Z,28.60
2022-11-22T09:37:32.532Z,29.73
2022-11-22T09:38:37.214Z,32.08
2022-11-22T09:39:42.581Z,30.80
2022-11-22T09:40:49.333Z,31.45
2022-11-22T09:42:19.520Z,27.40
2022-11-22T09:43:32.957Z,33.45
2022-11-22T09:45:07.558Z,31.80
2022-11-22T09:46:25.603Z,29.75
2022-11-22T09:47:58.694Z,33.85
2022-11-22T09:49:21.792Z,27.15
2022-11-22T09:50:55.909Z,26.30
2022-11-22T09:52:02.152Z,31.38
2022-11-22T09:53:26.151Z,36.20
2022-11-22T09:54:40.978Z,29.65
2022-11-22T09:55:49.394Z,35.83
2022-11-22T09:56:56.587Z,26.20
2022-11-22T09:58:36.195Z,25.42
2022-11-22T09:59:40.486Z,27.23
2022-11-22T10:00:47.744Z,28.40
2022-11-22T10:02:16.913Z,32.60
2022-11-22T10:03:37.058Z,34.38
2022-11-22T10:04:44.944Z,33.38
2022-11-22T10:05:56.309Z,31.25
2022-11-22T10:07:20.836Z,30.02
2022-11-22T10:08:56.551Z,36.17
2022-11-22T10:10:17.789Z,28.17
2022-11-22T10:11:40.607Z,28.90
2022-11-22T10:12:57.485Z,30.50
2022-11-22T10:14:50.368Z,27.70
2022-11-22T10:19:21.861Z,30.67
2022-11-22T10:20:44.269Z,27.40
2022-11-22T10:22:20.866Z,26.33
2022-11-22T10:23:35.390Z,25.23
2022-11-22T10:24:43.444Z,27.90
2022-11-22T10:26:02.978Z,33.42
2022-11-22T10:27:23.148Z,30.92
2022-11-22T10:28:54.177Z,31.25
2022-11-22T10:30:18.415Z,31.95
2022-11-22T10:31:57.884Z,31.98
2022-11-22T10:33:19.016Z,26.17
2022-11-22T10:35:16.515Z,33.10
2022-11-22T10:36:48.406Z,29.40
2022-11-22T10:38:38.136Z,35.53
2022-11-22T10:40:21.753Z,28.15
2022-11-22T10:41:51.531Z,28.27
2022-11-22T10:43:46.809Z,31.23
2022-11-22T10:46:55.225Z,22.75
2022-11-22T10:48:30.309Z,32.33
2022-11-22T10:49:52.184Z,27.77
2022-11-22T10:51:19.751Z,26.35
2022-11-22T10:53:06.707Z,34.70
2022-11-22T10:55:05.815Z,27.60
2022-11-22T10:56:38.170Z,26.73
2022-11-22T10:58:06.501Z,29.77
2022-11-22T10:59:30.383Z,30.25
2022-11-22T11:00:38.494Z,28.45
2022-11-22T11:02:19.827Z,28.98
2022-11-22T11:03:34.420Z,23.35
2022-11-22T11:04:40.095Z,27.02
2022-11-22T11:07:25.476Z,32.47
2022-11-22T11:10:29.541Z,28.23
2022-11-22T11:11:37.518Z,24.00
2022-11-22T11:12:50.568Z,29.52
2022-11-22T11:13:59.807Z,29.42
2022-11-22T11:15:16.939Z,23.27
2022-11-22T11:16:24.275Z,29.27
2022-11-22T11:17:35.646Z,27.20
2022-11-22T11:18:48.257Z,28.30
2022-11-22T11:20:00.196Z,26.02
2022-11-22T11:21:04.413Z,25.58
2022-11-22T11:22:09.761Z,26.20
2022-11-22T11:23:15.243Z,25.25
2022-11-22T11:24:19.785Z,24.15
2022-11-22T11:25:40.695Z,28.70
2022-11-22T11:26:52.474Z,24.95
2022-11-22T11:28:00.249Z,25.92
2022-11-22T11:29:18.025Z,26.30
2022-11-22T11:30:20.653Z,26.25
2022-11-22T11:31:46.469Z,24.38
2022-11-22T11:32:55.523Z,23.23
2022-11-22T11:34:27.167Z,23.67
2022-11-22T11:35:31.152Z,27.02
2022-11-22T11:36:34.053Z,24.80
2022-11-22T11:37:38.441Z,26.52
2022-11-22T11:38:41.033Z,21.73
2022-11-22T11:39:47.626Z,23.90
2022-11-22T11:40:50.173Z,24.70
2022-11-22T11:41:52.832Z,24.42
2022-11-22T11:43:23.791Z,24.55
2022-11-22T11:44:34.706Z,29.45
2022-11-22T11:45:37.407Z,23.73
2022-11-22T11:46:40.039Z,25.60
2022-11-22T11:47:42.596Z,26.77
2022-11-22T11:48:45.823Z,25.45
2022-11-22T11:49:52.233Z,26.17
2022-11-22T11:51:11.185Z,26.42
2022-11-22T11:52:22.362Z,25.27
2022-11-22T11:53:26.524Z,26.10
2022-11-22T11:54:49.008Z,24.02
2022-11-22T11:55:52.428Z,23.52
2022-11-22T11:57:05.684Z,24.40
2022-11-22T11:58:23.972Z,26.00
2022-11-22T11:59:45.894Z,24.48
2022-11-22T12:00:48.516Z,27.35
2022-11-22T12:02:01.890Z,25.45
2022-11-22T12:03:12.919Z,23.95
2022-11-22T12:04:23.883Z,25.33
2022-11-22T12:05:32.665Z,20.08
2022-11-22T12:06:35.210Z,23.80
2022-11-22T12:07:46.449Z,25.20
2022-11-22T12:08:49.130Z,30.77
2022-11-22T12:09:53.712Z,22.42
2022-11-22T12:11:01.119Z,27.13
2022-11-22T12:12:17.857Z,30.77
2022-11-22T12:13:32.716Z,23.60
2022-11-22T12:15:09.123Z,29.63
2022-11-22T12:16:21.874Z,26.50
2022-11-22T12:17:30.399Z,23.73
2022-11-22T12:19:14.734Z,27.88
2022-11-22T12:20:37.003Z,23.63
2022-11-22T12:21:45.648Z,25.27
2022-11-22T12:23:50.572Z,24.63
2022-11-22T12:25:31.067Z,22.38
2022-11-22T12:26:27.882Z,20.33
2022-11-22T12:27:31.659Z,24.92
2022-11-22T12:28:34.807Z,27.63
2022-11-22T12:29:41.473Z,26.70
2022-11-22T12:30:45.751Z,28.30
2022-11-22T12:32:19.583Z,22.52
2022-11-22T12:33:44.597Z,26.55
2022-11-22T12:35:44.778Z,28.48
2022-11-22T12:37:27.640Z,19.48
2022-11-22T12:40:53.147Z,27.47
2022-11-22T12:42:21.536Z,23.83
2022-11-22T12:43:52.657Z,20.30
2022-11-22T12:45:31.669Z,25.42
2022-11-22T12:46:55.117Z,24.02
2022-11-22T12:55:18.448Z,24.40
2022-11-22T13:07:22.831Z,24.83
2022-11-22T13:09:38.126Z,27.95
2022-11-22T13:11:32.882Z,23.77
2022-11-22T13:12:49.621Z,27.52
2022-11-22T13:15:08.943Z,23.50
2022-11-22T13:16:16.849Z,26.25
2022-11-22T13:18:40.827Z,21.42
2022-11-22T13:19:54.566Z,21.08
2022-11-22T13:21:49.401Z,20.70
2022-11-22T13:23:18.507Z,22.25
2022-11-22T13:25:23.338Z,22.08
2022-11-22T13:27:09.408Z,25.60
2022-11-22T13:29:31.983Z,21.05
2022-11-22T13:34:00.728Z,20.33
2022-11-22T13:38:42.033Z,23.92
2022-11-22T13:39:51.917Z,23.52
2022-11-22T13:41:34.133Z,23.80
2022-11-22T13:43:21.659Z,20.20
2022-11-22T13:44:36.590Z,21.58
2022-11-22T13:48:41.924Z,23.67
2022-11-22T13:49:49.461Z,25.08
2022-11-22T13:50:54.449Z,26.90
2022-11-22T13:51:59.995Z,24.50
2022-11-22T13:53:25.809Z,26.77
2022-11-22T13:54:38.443Z,27.70
2022-11-22T13:55:42.691Z,29.85
2022-11-22T13:56:45.417Z,28.63
2022-11-22T13:57:48.058Z,27.92
2022-11-22T13:59:14.562Z,29.83
2022-11-22T14:00:19.744Z,26.10
2022-11-22T14:01:35.731Z,25.20
2022-11-22T14:03:41.882Z,23.40
2022-11-22T14:05:04.072Z,23.17
2022-11-22T14:06:29.086Z,25.33
2022-11-22T14:08:00.873Z,24.27
2022-11-22T14:09:50.901Z,26.20
2022-11-22T14:12:59.317Z,26.42
2022-11-22T14:14:51.777Z,26.58
2022-11-22T14:16:11.937Z,27.85
2022-11-22T14:17:44.545Z,22.20
2022-11-22T14:19:25.818Z,22.77
2022-11-22T14:20:42.453Z,23.05
2022-11-22T14:22:09.035Z,28.38
2022-11-22T14:23:19.857Z,25.40
2022-11-22T14:25:39.945Z,23.70
2022-11-22T14:27:00.114Z,25.75
2022-11-22T14:28:27.533Z,26.05
2022-11-22T14:30:14.437Z,23.40
2022-11-22T14:31:34.769Z,25.23
2022-11-22T14:33:01.997Z,28.55
2022-11-22T14:34:36.239Z,26.13
2022-11-22T14:36:12.580Z,24.88
2022-11-22T14:37:20.977Z,24.20
2022-11-22T14:38:29.068Z,27.25
2022-11-22T14:39:48.675Z,26.80
2022-11-22T14:41:28.579Z,24.95
2022-11-22T14:42:37.645Z,28.20
2022-11-22T14:43:44.376Z,32.25
2022-11-22T14:45:01.933Z,26.75
2022-11-22T14:46:51.777Z,32.17
2022-11-22T14:47:53.059Z,28.50
2022-11-22T14:49:06.798Z,32.63
2022-11-22T14:50:18.330Z,27.98
2022-11-22T14:51:37.218Z,28.52
2022-11-22T14:52:44.702Z,30.58
2022-11-22T14:53:59.777Z,26.45
2022-11-22T14:55:09.498Z,33.35
2022-11-22T14:56:34.921Z,27.77
2022-11-22T14:57:46.310Z,27.48
2022-11-22T14:59:36.724Z,26.85
2022-11-22T15:01:35.290Z,26.92
2022-11-22T15:03:05.658Z,30.98
2022-11-22T15:09:12.526Z,32.58
2022-11-22T15:09:20.357Z,32.25
2022-11-22T15:09:23.221Z,28.92
2022-11-22T15:10:38.780Z,26.05
2022-11-22T15:12:14.252Z,32.53
2022-11-22T15:13:50.646Z,29.80
2022-11-22T15:58:14.701Z,28.02
2022-11-22T15:59:27.709Z,32.00
2022-11-22T16:00:30.523Z,31.20
2022-11-22T16:01:39.908Z,28.73
2022-11-22T16:02:53.229Z,31.30
2022-11-22T16:04:40.552Z,31.15
2022-11-22T16:06:06.252Z,34.70
2022-11-22T16:07:29.469Z,28.13
2022-11-22T16:08:32.902Z,33.92
2022-11-22T16:09:38.114Z,36.88
2022-11-22T16:10:45.592Z,32.08
2022-11-22T16:11:55.236Z,28.67
2022-11-22T16:13:13.962Z,30.80
2022-11-22T16:14:41.007Z,25.92
2022-11-22T16:15:43.589Z,30.10
2022-11-22T16:16:46.235Z,30.27
2022-11-22T16:18:05.866Z,30.65
2022-11-22T16:19:34.304Z,31.63
2022-11-22T16:20:39.450Z,30.95
2022-11-22T16:21:59.527Z,25.98
2022-11-22T16:23:11.930Z,27.33
2022-11-22T16:24:19.323Z,34.03
2022-11-22T16:25:33.645Z,30.67
2022-11-22T16:26:36.215Z,31.25
2022-11-22T16:27:46.607Z,32.33
2022-11-22T16:28:51.541Z,35.03
2022-11-22T16:29:54.168Z,27.13
2022-11-22T16:31:03.296Z,33.83
2022-11-22T16:32:12.348Z,32.80
2022-11-22T16:33:15.036Z,28.50
2022-11-22T16:34:17.842Z,30.00
2022-11-22T16:35:33.766Z,25.40
2022-11-22T16:36:36.634Z,41.53
2022-11-22T16:37:47.952Z,29.95
2022-11-22T16:38:51.434Z,26.67
2022-11-22T16:39:54.228Z,31.98
2022-11-22T16:40:58.903Z,28.88
2022-11-22T16:42:01.427Z,35.70
2022-11-22T16:43:09.573Z,31.02
2022-11-22T16:45:33.663Z,36.17
2022-11-22T16:46:36.274Z,31.73
2022-11-22T16:47:38.849Z,30.30
2022-11-22T16:48:42.948Z,31.95
2022-11-22T16:49:47.101Z,31.73
2022-11-22T16:50:58.030Z,37.63
2022-11-22T16:52:01.712Z,36.17
2022-11-22T16:53:10.494Z,34.60
2022-11-22T16:54:17.766Z,30.40
2022-11-22T16:55:21.141Z,28.42
2022-11-22T16:56:27.570Z,31.75
2022-11-22T16:57:30.119Z,29.33